📊 Raw Sensor Data

Showing records 36251 to 36275 of 84,892 total

ID Distance (ft) Battery V Battery A Int Temp (°F) Int Humid (%) Ext Temp (°F) Solar V RSSI SNR Time Stamp
48654 15.1 3.84 -5 71 47 71 0.00 -69 8 08/08/2025 11:15 PM
48653 15.1 3.93 -5 71 47 72 0.10 -68 8 08/08/2025 11:00 PM
48652 15.1 3.84 -5 73 48 73 0.10 -70 7 08/08/2025 10:30 PM
48651 15.1 3.84 -5 73 49 74 0.00 -69 8 08/08/2025 10:15 PM
48650 15.1 3.84 -5 75 50 75 0.00 -70 8 08/08/2025 09:45 PM
48649 15.2 3.93 -5 76 51 76 0.00 -69 7 08/08/2025 09:30 PM
48648 15.2 3.85 -5 78 52 77 0.00 -70 8 08/08/2025 09:15 PM
48647 15.2 3.93 -5 82 55 80 0.00 -69 8 08/08/2025 08:45 PM
48646 15.2 3.94 -5 85 57 83 0.00 -69 8 08/08/2025 08:30 PM
48645 15.2 3.93 -9 89 60 84 1.50 -69 8 08/08/2025 08:15 PM
48644 15.3 3.83 -26 95 58 88 3.20 -69 7 08/08/2025 08:00 PM
48643 15.3 3.95 0 102 56 95 4.60 -69 8 08/08/2025 07:45 PM
48642 15.3 3.96 0 106 55 101 4.60 -69 8 08/08/2025 07:30 PM
48641 15.4 3.98 7 110 54 104 4.60 -68 8 08/08/2025 07:15 PM
48640 15.4 3.93 14 112 52 107 4.60 -68 7 08/08/2025 07:00 PM
48639 15.4 4.00 41 114 51 108 4.60 -69 8 08/08/2025 06:45 PM
48638 15.4 3.92 0 115 50 106 5.10 -69 8 08/08/2025 06:30 PM
48637 15.5 3.92 0 116 49 109 5.10 -69 8 08/08/2025 06:15 PM
48636 15.5 3.92 0 116 48 107 5.10 -69 8 08/08/2025 06:00 PM
48635 15.4 3.92 0 114 48 104 5.10 -68 8 08/08/2025 05:45 PM
48634 15.4 3.92 0 115 48 105 5.10 -69 8 08/08/2025 05:30 PM
48633 15.5 3.92 0 115 48 102 5.10 -68 7 08/08/2025 05:15 PM
48632 15.4 4.07 0 116 46 108 5.10 -68 8 08/08/2025 05:00 PM
48631 15.4 3.92 0 115 47 100 5.20 -68 8 08/08/2025 04:45 PM
48630 15.5 3.92 0 116 46 103 5.20 -69 8 08/08/2025 04:30 PM